createdAt,value
2022-08-03T00:01:00.090Z,21.87
2022-08-03T00:03:00.489Z,21.85
2022-08-03T00:08:16.330Z,22.75
2022-08-03T00:10:16.459Z,22.29
2022-08-03T00:12:16.880Z,21.98
2022-08-03T00:14:16.767Z,21.80
2022-08-03T00:16:16.901Z,21.69
2022-08-03T00:18:17.133Z,21.62
2022-08-03T00:20:17.158Z,21.58
2022-08-03T00:22:17.528Z,21.56
2022-08-03T00:24:17.462Z,21.54
2022-08-03T00:26:17.595Z,21.53
2022-08-03T00:28:17.915Z,21.52
2022-08-03T00:30:17.880Z,21.50
2022-08-03T00:32:18.068Z,21.49
2022-08-03T00:34:18.204Z,21.47
2022-08-03T00:36:19.286Z,21.45
2022-08-03T00:38:18.381Z,21.43
2022-08-03T00:40:18.539Z,21.41
2022-08-03T00:42:18.851Z,21.39
2022-08-03T00:44:18.747Z,21.37
2022-08-03T00:46:21.654Z,21.35
2022-08-03T00:48:29.796Z,21.32
2022-08-03T00:50:20.153Z,21.30
2022-08-03T00:52:19.510Z,21.27
2022-08-03T00:54:19.426Z,21.25
2022-08-03T00:56:19.543Z,21.23
2022-08-03T00:58:19.667Z,21.20
2022-08-03T01:00:20.230Z,21.18
2022-08-03T01:02:20.008Z,21.15
2022-08-03T01:04:20.199Z,21.13
2022-08-03T01:06:20.207Z,21.11
2022-08-03T01:08:20.273Z,21.09
2022-08-03T01:10:20.527Z,21.07
2022-08-03T01:12:20.595Z,21.04
2022-08-03T01:14:20.679Z,21.03
2022-08-03T01:16:20.919Z,21.01
2022-08-03T01:18:22.025Z,20.99
2022-08-03T01:20:21.115Z,20.97
2022-08-03T01:22:21.209Z,20.96
2022-08-03T01:24:21.662Z,20.95
2022-08-03T01:26:21.560Z,20.93
2022-08-03T01:28:21.587Z,20.92
2022-08-03T01:30:22.218Z,20.91
2022-08-03T01:32:59.656Z,20.89
2022-08-03T01:34:22.992Z,20.88
2022-08-03T01:36:22.190Z,20.86
2022-08-03T01:38:22.278Z,20.84
2022-08-03T01:40:22.562Z,20.82
2022-08-03T01:42:22.526Z,20.80
2022-08-03T01:44:29.337Z,20.78
2022-08-03T01:46:23.808Z,20.75
2022-08-03T01:48:22.923Z,20.73
2022-08-03T01:50:23.094Z,20.71
2022-08-03T01:52:23.154Z,20.68
2022-08-03T01:54:23.418Z,20.66
2022-08-03T01:56:23.422Z,20.64
2022-08-03T01:58:23.634Z,20.61
2022-08-03T02:00:23.648Z,20.59
2022-08-03T02:02:33.411Z,20.55
2022-08-03T02:04:24.913Z,20.52
2022-08-03T02:07:00.790Z,20.49
2022-08-03T02:08:25.163Z,20.46
2022-08-03T02:10:35.311Z,20.43
2022-08-03T02:12:25.429Z,20.41
2022-08-03T02:14:24.577Z,20.39
2022-08-03T02:16:24.823Z,20.37
2022-08-03T02:18:24.913Z,20.36
2022-08-03T02:20:25.070Z,20.34
2022-08-03T02:22:25.191Z,20.32
2022-08-03T02:24:25.254Z,20.30
2022-08-03T02:26:25.425Z,20.28
2022-08-03T02:28:25.530Z,20.26
2022-08-03T02:30:25.606Z,20.23
2022-08-03T02:32:25.753Z,20.21
2022-08-03T02:34:25.882Z,20.18
2022-08-03T02:36:25.982Z,20.15
2022-08-03T02:38:26.122Z,20.12
2022-08-03T02:40:26.203Z,20.09
2022-08-03T02:42:26.358Z,20.07
2022-08-03T02:44:26.597Z,20.05
2022-08-03T02:46:26.661Z,20.03
2022-08-03T02:48:26.784Z,20.01
2022-08-03T02:50:27.031Z,20.00
2022-08-03T02:52:27.064Z,19.98
2022-08-03T02:54:27.261Z,19.97
2022-08-03T02:56:27.281Z,19.95
2022-08-03T02:58:27.461Z,19.92
2022-08-03T03:00:28.672Z,19.90
2022-08-03T03:02:27.663Z,19.88
2022-08-03T03:04:31.332Z,19.85
2022-08-03T03:06:29.295Z,19.83
2022-08-03T03:08:28.590Z,19.81
2022-08-03T03:10:28.242Z,19.79
2022-08-03T03:12:28.525Z,19.77
2022-08-03T03:14:33.533Z,19.75
2022-08-03T03:16:29.733Z,19.72
2022-08-03T03:18:28.773Z,19.69
2022-08-03T03:20:30.207Z,19.67
2022-08-03T03:22:29.093Z,19.65
2022-08-03T03:24:29.597Z,19.63
2022-08-03T03:26:29.457Z,19.61
2022-08-03T03:28:29.671Z,19.60
2022-08-03T03:30:29.573Z,19.58
2022-08-03T03:32:29.679Z,19.55
2022-08-03T03:34:29.828Z,19.52
2022-08-03T03:36:29.932Z,19.50
2022-08-03T03:38:30.078Z,19.47
2022-08-03T03:40:30.176Z,19.45
2022-08-03T03:42:30.342Z,19.43
2022-08-03T03:44:30.418Z,19.42
2022-08-03T03:46:30.572Z,19.41
2022-08-03T03:48:30.707Z,19.40
2022-08-03T03:50:30.857Z,19.39
2022-08-03T03:52:31.020Z,19.38
2022-08-03T03:54:31.080Z,19.37
2022-08-03T03:56:31.216Z,19.35
2022-08-03T03:58:31.372Z,19.34
2022-08-03T04:00:31.487Z,19.33
2022-08-03T04:02:31.596Z,19.32
2022-08-03T04:04:31.638Z,19.31
2022-08-03T04:06:31.786Z,19.30
2022-08-03T04:08:32.188Z,19.29
2022-08-03T04:10:31.981Z,19.28
2022-08-03T04:12:32.086Z,19.27
2022-08-03T04:14:32.282Z,19.26
2022-08-03T04:17:48.117Z,20.25
2022-08-03T04:19:48.200Z,19.79
2022-08-03T04:21:48.312Z,19.49
2022-08-03T04:23:48.401Z,19.33
2022-08-03T04:25:48.507Z,19.25
2022-08-03T04:28:08.045Z,19.20
2022-08-03T04:29:49.733Z,19.18
2022-08-03T04:31:48.860Z,19.17
2022-08-03T04:33:49.057Z,19.17
2022-08-03T04:35:58.440Z,19.18
2022-08-03T04:37:50.177Z,19.19
2022-08-03T04:39:49.319Z,19.20
2022-08-03T04:42:07.269Z,19.22
2022-08-03T04:43:50.608Z,19.24
2022-08-03T04:45:49.653Z,19.26
2022-08-03T04:47:49.808Z,19.28
2022-08-03T04:49:49.920Z,19.29
2022-08-03T04:51:50.054Z,19.31
2022-08-03T04:53:50.136Z,19.32
2022-08-03T04:55:50.225Z,19.34
2022-08-03T04:57:50.381Z,19.36
2022-08-03T04:59:50.461Z,19.37
2022-08-03T05:01:50.596Z,19.39
2022-08-03T05:03:50.732Z,19.40
2022-08-03T05:05:51.002Z,19.43
2022-08-03T05:07:51.071Z,19.45
2022-08-03T05:09:57.493Z,19.47
2022-08-03T05:11:52.240Z,19.50
2022-08-03T05:13:51.415Z,19.52
2022-08-03T05:15:51.534Z,19.55
2022-08-03T05:17:51.662Z,19.58
2022-08-03T05:19:51.803Z,19.60
2022-08-03T05:21:53.020Z,19.63
2022-08-03T05:23:52.070Z,19.67
2022-08-03T05:25:52.163Z,19.71
2022-08-03T05:27:52.395Z,19.74
2022-08-03T05:29:52.421Z,19.77
2022-08-03T05:31:52.557Z,19.81
2022-08-03T05:33:52.695Z,19.84
2022-08-03T05:36:02.362Z,19.87
2022-08-03T05:37:54.784Z,19.90
2022-08-03T05:39:53.101Z,19.94
2022-08-03T05:41:53.189Z,19.97
2022-08-03T05:43:53.335Z,20.01
2022-08-03T05:46:12.092Z,20.06
2022-08-03T05:47:54.674Z,20.11
2022-08-03T05:49:53.739Z,20.16
2022-08-03T05:51:59.989Z,20.21
2022-08-03T05:53:54.960Z,20.26
2022-08-03T05:55:56.975Z,20.31
2022-08-03T05:57:56.847Z,20.36
2022-08-03T05:59:58.191Z,20.41
2022-08-03T06:01:54.503Z,20.45
2022-08-03T06:03:54.556Z,20.49
2022-08-03T06:06:00.029Z,20.54
2022-08-03T06:07:55.846Z,20.60
2022-08-03T06:10:33.627Z,20.66
2022-08-03T06:11:56.122Z,20.73
2022-08-03T06:13:55.309Z,20.81
2022-08-03T06:15:55.375Z,20.89
2022-08-03T06:17:58.716Z,20.98
2022-08-03T06:19:56.656Z,21.08
2022-08-03T06:21:55.868Z,21.29
2022-08-03T06:23:55.915Z,21.98
2022-08-03T06:25:56.190Z,23.82
2022-08-03T06:27:56.218Z,26.51
2022-08-03T06:29:56.407Z,29.21
2022-08-03T06:31:56.494Z,31.62
2022-08-03T06:34:33.567Z,33.72
2022-08-03T06:35:57.799Z,35.64
2022-08-03T06:37:56.977Z,37.44
2022-08-03T06:39:57.046Z,39.11
2022-08-03T06:41:57.208Z,40.64
2022-08-03T06:44:03.201Z,42.06
2022-08-03T06:45:58.444Z,43.36
2022-08-03T06:47:58.701Z,44.53
2022-08-03T06:50:05.600Z,45.59
2022-08-03T06:52:06.041Z,46.48
2022-08-03T06:53:59.081Z,47.22
2022-08-03T06:55:58.126Z,47.89
2022-08-03T06:58:00.157Z,48.52
2022-08-03T07:00:07.393Z,49.11
2022-08-03T07:01:59.548Z,49.65
2022-08-03T07:03:58.701Z,50.10
2022-08-03T07:05:58.812Z,50.39
2022-08-03T07:07:59.027Z,50.42
2022-08-03T07:09:59.120Z,50.19
2022-08-03T07:11:59.280Z,49.76
2022-08-03T07:13:59.445Z,49.26
2022-08-03T07:15:59.597Z,48.77
2022-08-03T07:17:59.734Z,48.35
2022-08-03T07:19:59.870Z,48.02
2022-08-03T07:22:02.048Z,47.77
2022-08-03T07:24:00.236Z,47.53
2022-08-03T07:26:00.319Z,47.29
2022-08-03T07:28:00.511Z,47.07
2022-08-03T07:30:00.618Z,46.87
2022-08-03T07:32:00.759Z,46.62
2022-08-03T07:34:00.952Z,46.34
2022-08-03T07:36:01.088Z,46.00
2022-08-03T07:38:01.203Z,45.58
2022-08-03T07:40:01.339Z,45.04
2022-08-03T07:42:01.491Z,44.44
2022-08-03T07:44:01.603Z,43.84
2022-08-03T07:46:01.739Z,43.23
2022-08-03T07:48:01.876Z,42.65
2022-08-03T07:50:02.014Z,42.12
2022-08-03T07:52:02.099Z,41.66
2022-08-03T07:54:02.283Z,41.29
2022-08-03T07:56:02.391Z,41.03
2022-08-03T07:58:02.562Z,40.90
2022-08-03T08:00:03.095Z,40.86
2022-08-03T08:02:02.814Z,40.91
2022-08-03T08:04:03.017Z,41.08
2022-08-03T08:06:03.198Z,41.42
2022-08-03T08:08:03.263Z,41.90
2022-08-03T08:10:03.620Z,42.46
2022-08-03T08:12:03.534Z,43.05
2022-08-03T08:14:04.722Z,43.62
2022-08-03T08:16:03.819Z,44.17
2022-08-03T08:18:03.961Z,44.69
2022-08-03T08:20:04.165Z,45.18
2022-08-03T08:22:04.252Z,45.62
2022-08-03T08:24:07.233Z,45.97
2022-08-03T08:26:05.574Z,46.22
2022-08-03T08:28:29.647Z,46.36
2022-08-03T08:30:11.478Z,46.35
2022-08-03T08:32:05.929Z,46.24
2022-08-03T08:34:05.190Z,46.04
2022-08-03T08:36:05.169Z,45.82
2022-08-03T08:38:05.729Z,45.62
2022-08-03T08:40:05.458Z,45.47
2022-08-03T08:42:05.593Z,45.35
2022-08-03T08:44:05.724Z,45.24
2022-08-03T08:46:05.907Z,45.14
2022-08-03T08:48:08.356Z,45.05
2022-08-03T08:50:10.048Z,44.99
2022-08-03T08:52:25.407Z,44.95
2022-08-03T08:54:07.457Z,44.90
2022-08-03T08:56:06.614Z,44.84
2022-08-03T08:58:06.737Z,44.78
2022-08-03T09:00:06.853Z,44.71
2022-08-03T09:02:07.154Z,44.64
2022-08-03T09:04:07.167Z,44.58
2022-08-03T09:06:07.301Z,44.56
2022-08-03T09:08:07.515Z,44.59
2022-08-03T09:10:12.987Z,44.65
2022-08-03T09:12:35.359Z,44.73
2022-08-03T09:14:08.878Z,44.80
2022-08-03T09:16:07.996Z,44.83
2022-08-03T09:18:08.122Z,44.85
2022-08-03T09:20:08.237Z,44.90
2022-08-03T09:22:08.425Z,45.00
2022-08-03T09:24:20.631Z,45.12
2022-08-03T09:26:09.690Z,45.25
2022-08-03T09:28:09.138Z,45.36
2022-08-03T09:30:33.820Z,45.42
2022-08-03T09:32:10.160Z,45.48
2022-08-03T09:34:09.287Z,45.59
2022-08-03T09:36:09.391Z,45.76
2022-08-03T09:38:13.830Z,45.97
2022-08-03T09:40:09.702Z,46.16
2022-08-03T09:42:09.891Z,46.35
2022-08-03T09:44:24.128Z,46.56
2022-08-03T09:46:11.080Z,46.79
2022-08-03T09:48:10.239Z,47.00
2022-08-03T09:50:10.785Z,47.17
2022-08-03T09:52:38.310Z,47.31
2022-08-03T09:54:18.887Z,47.42
2022-08-03T09:56:36.146Z,47.57
2022-08-03T09:58:11.945Z,47.75
2022-08-03T10:00:11.055Z,47.96
2022-08-03T10:02:11.196Z,48.20
2022-08-03T10:04:12.021Z,48.45
2022-08-03T10:06:11.491Z,48.69
2022-08-03T10:08:11.679Z,48.89
2022-08-03T10:10:30.013Z,49.04
2022-08-03T10:12:12.877Z,49.14
2022-08-03T10:14:12.035Z,49.19
2022-08-03T10:16:23.555Z,49.24
2022-08-03T10:18:13.278Z,49.30
2022-08-03T10:20:12.463Z,49.35
2022-08-03T10:22:12.585Z,49.40
2022-08-03T10:24:12.895Z,49.45
2022-08-03T10:26:12.778Z,49.48
2022-08-03T10:28:12.943Z,49.50
2022-08-03T10:30:13.177Z,49.57
2022-08-03T10:32:13.194Z,49.66
2022-08-03T10:34:13.306Z,49.77
2022-08-03T10:36:13.463Z,49.89
2022-08-03T10:38:13.612Z,49.99
2022-08-03T10:40:23.188Z,50.09
2022-08-03T10:42:14.987Z,50.19
2022-08-03T10:44:13.992Z,50.16
2022-08-03T10:46:14.172Z,50.12
2022-08-03T10:48:14.319Z,50.14
2022-08-03T10:50:14.444Z,50.13
2022-08-03T10:52:31.920Z,50.05
2022-08-03T10:54:15.683Z,49.93
2022-08-03T10:56:14.816Z,49.81
2022-08-03T10:58:30.265Z,49.71
2022-08-03T11:00:16.150Z,49.65
2022-08-03T11:02:15.205Z,49.63
2022-08-03T11:04:17.096Z,49.64
2022-08-03T11:06:15.643Z,49.65
2022-08-03T11:08:15.629Z,49.61
2022-08-03T11:10:15.791Z,49.54
2022-08-03T11:12:15.874Z,49.51
2022-08-03T11:14:16.114Z,49.52
2022-08-03T11:16:21.235Z,49.50
2022-08-03T11:18:17.273Z,49.41
2022-08-03T11:20:16.392Z,49.24
2022-08-03T11:22:16.572Z,49.08
2022-08-03T11:24:16.712Z,48.97
2022-08-03T11:26:16.876Z,48.92
2022-08-03T11:28:17.021Z,48.85
2022-08-03T11:30:17.214Z,48.74
2022-08-03T11:32:19.556Z,48.60
2022-08-03T11:34:17.491Z,48.48
2022-08-03T11:36:32.279Z,48.40
2022-08-03T11:38:18.770Z,48.33
2022-08-03T11:40:17.801Z,48.20
2022-08-03T11:42:17.953Z,48.08
2022-08-03T11:44:18.136Z,48.00
2022-08-03T11:46:18.221Z,47.94
2022-08-03T11:48:19.375Z,47.89
2022-08-03T11:50:18.581Z,47.84
2022-08-03T11:52:18.628Z,47.83
2022-08-03T11:54:18.887Z,47.82
2022-08-03T11:56:18.906Z,47.81
2022-08-03T11:59:10.922Z,47.78
2022-08-03T12:00:20.265Z,47.71
2022-08-03T12:02:19.382Z,47.61
2022-08-03T12:04:19.597Z,47.48
2022-08-03T12:06:19.746Z,47.34
2022-08-03T12:08:19.753Z,47.21
2022-08-03T12:10:19.930Z,47.10
2022-08-03T12:12:20.082Z,47.00
2022-08-03T12:14:48.980Z,46.87
2022-08-03T12:16:21.341Z,46.68
2022-08-03T12:18:20.539Z,46.47
2022-08-03T12:20:20.653Z,46.25
2022-08-03T12:22:21.781Z,46.02
2022-08-03T12:24:20.939Z,45.74
2022-08-03T12:26:21.097Z,45.44
2022-08-03T12:28:36.479Z,45.16
2022-08-03T12:30:22.314Z,44.90
2022-08-03T12:32:21.495Z,44.68
2022-08-03T12:34:21.635Z,44.48
2022-08-03T12:36:21.727Z,44.33
2022-08-03T12:38:21.962Z,44.15
2022-08-03T12:40:25.158Z,43.95
2022-08-03T12:42:23.154Z,43.74
2022-08-03T12:44:22.495Z,43.55
2022-08-03T12:46:22.446Z,43.40
2022-08-03T12:48:23.487Z,43.27
2022-08-03T12:50:23.708Z,43.16
2022-08-03T12:52:22.805Z,43.06
2022-08-03T12:54:24.595Z,42.98
2022-08-03T12:56:23.056Z,42.91
2022-08-03T12:58:23.210Z,42.83
2022-08-03T13:00:29.542Z,42.72
2022-08-03T13:02:24.665Z,42.58
2022-08-03T13:04:23.626Z,42.44
2022-08-03T13:06:23.776Z,42.34
2022-08-03T13:08:23.931Z,42.26
2022-08-03T13:10:24.032Z,42.21
2022-08-03T13:12:24.167Z,42.18
2022-08-03T13:14:24.299Z,42.14
2022-08-03T13:16:24.522Z,42.09
2022-08-03T13:18:24.611Z,42.03
2022-08-03T13:20:24.667Z,41.95
2022-08-03T13:22:24.821Z,41.85
2022-08-03T13:24:24.930Z,41.73
2022-08-03T13:26:25.027Z,41.61
2022-08-03T13:28:25.240Z,41.48
2022-08-03T13:30:30.434Z,41.33
2022-08-03T13:32:26.452Z,41.15
2022-08-03T13:34:25.613Z,40.97
2022-08-03T13:36:25.653Z,40.80
2022-08-03T13:38:26.997Z,40.65
2022-08-03T13:40:30.131Z,40.52
2022-08-03T13:42:26.023Z,40.39
2022-08-03T13:44:29.409Z,40.26
2022-08-03T13:46:26.435Z,40.14
2022-08-03T13:48:35.860Z,40.02
2022-08-03T13:50:27.578Z,39.91
2022-08-03T13:52:26.690Z,39.81
2022-08-03T13:54:26.830Z,39.73
2022-08-03T13:56:26.959Z,39.67
2022-08-03T13:58:27.046Z,39.64
2022-08-03T14:00:29.591Z,39.61
2022-08-03T14:02:27.315Z,39.57
2022-08-03T14:04:27.457Z,39.51
2022-08-03T14:06:27.519Z,39.46
2022-08-03T14:08:27.620Z,39.43
2022-08-03T14:10:27.854Z,39.42
2022-08-03T14:12:27.876Z,39.42
2022-08-03T14:14:28.627Z,39.43
2022-08-03T14:16:28.131Z,39.42
2022-08-03T14:18:33.474Z,39.41
2022-08-03T14:20:37.786Z,39.39
2022-08-03T14:22:29.527Z,39.35
2022-08-03T14:24:28.659Z,39.31
2022-08-03T14:26:28.696Z,39.26
2022-08-03T14:28:28.889Z,39.20
2022-08-03T14:30:29.002Z,39.13
2022-08-03T14:32:29.091Z,39.04
2022-08-03T14:34:29.248Z,38.94
2022-08-03T14:36:29.339Z,38.86
2022-08-03T14:38:29.451Z,38.79
2022-08-03T14:40:29.520Z,38.76
2022-08-03T14:42:29.705Z,38.74
2022-08-03T14:44:29.797Z,38.75
2022-08-03T14:46:30.090Z,38.76
2022-08-03T14:50:30.652Z,38.79
2022-08-03T14:50:42.848Z,38.82
2022-08-03T14:52:31.253Z,38.85
2022-08-03T14:54:30.514Z,38.86
2022-08-03T14:56:31.531Z,38.86
2022-08-03T14:58:30.700Z,38.84
2022-08-03T15:00:30.750Z,38.80
2022-08-03T15:02:30.947Z,38.76
2022-08-03T15:04:30.965Z,38.71
2022-08-03T15:06:31.221Z,38.66
2022-08-03T15:08:31.187Z,38.61
2022-08-03T15:10:43.775Z,38.54
2022-08-03T15:12:32.469Z,38.46
2022-08-03T15:14:33.423Z,38.38
2022-08-03T15:16:31.642Z,38.31
2022-08-03T15:18:31.783Z,38.23
2022-08-03T15:20:43.205Z,38.14
2022-08-03T15:22:34.570Z,38.05
2022-08-03T15:24:32.128Z,37.97
2022-08-03T15:26:36.618Z,37.90
2022-08-03T15:28:33.399Z,37.82
2022-08-03T15:30:32.473Z,37.75
2022-08-03T15:32:32.589Z,37.68
2022-08-03T15:34:32.946Z,37.61
2022-08-03T15:36:32.819Z,37.55
2022-08-03T15:38:32.937Z,37.50
2022-08-03T15:40:33.017Z,37.45
2022-08-03T15:42:33.469Z,37.41
2022-08-03T15:44:33.307Z,37.37
2022-08-03T15:46:33.522Z,37.34
2022-08-03T15:48:33.554Z,37.32
2022-08-03T15:50:33.647Z,37.32
2022-08-03T15:52:33.762Z,37.31
2022-08-03T15:54:34.031Z,37.31
2022-08-03T15:56:33.935Z,37.30
2022-08-03T15:59:03.990Z,37.29
2022-08-03T16:00:35.317Z,37.26
2022-08-03T16:02:34.328Z,37.23
2022-08-03T16:04:34.436Z,37.21
2022-08-03T16:06:36.045Z,37.18
2022-08-03T16:08:34.699Z,37.14
2022-08-03T16:10:34.808Z,37.09
2022-08-03T16:12:35.018Z,37.04
2022-08-03T16:14:46.861Z,36.99
2022-08-03T16:16:36.168Z,36.93
2022-08-03T16:18:35.303Z,36.86
2022-08-03T16:20:35.595Z,36.79
2022-08-03T16:22:35.483Z,36.74
2022-08-03T16:24:35.642Z,36.69
2022-08-03T16:26:35.854Z,36.64
2022-08-03T16:28:36.086Z,36.60
2022-08-03T16:30:36.035Z,36.56
2022-08-03T16:32:36.230Z,36.53
2022-08-03T16:34:36.334Z,36.50
2022-08-03T16:36:36.354Z,36.47
2022-08-03T16:38:36.536Z,36.45
2022-08-03T16:40:36.614Z,36.42
2022-08-03T16:42:36.686Z,36.39
2022-08-03T16:44:36.914Z,36.35
2022-08-03T16:46:36.997Z,36.31
2022-08-03T16:48:37.080Z,36.27
2022-08-03T16:50:37.280Z,36.23
2022-08-03T16:52:37.339Z,36.19
2022-08-03T16:54:37.451Z,36.15
2022-08-03T16:56:37.510Z,36.12
2022-08-03T16:58:42.386Z,36.09
2022-08-03T17:00:41.564Z,36.06
2022-08-03T17:02:37.915Z,36.03
2022-08-03T17:04:40.187Z,36.00
2022-08-03T17:06:38.085Z,35.97
2022-08-03T17:08:40.422Z,35.93
2022-08-03T17:10:38.325Z,35.88
2022-08-03T17:12:38.494Z,35.83
2022-08-03T17:14:38.608Z,35.78
2022-08-03T17:16:38.693Z,35.72
2022-08-03T17:18:49.503Z,35.67
2022-08-03T17:20:39.983Z,35.61
2022-08-03T17:22:39.095Z,35.55
2022-08-03T17:24:41.468Z,35.49
2022-08-03T17:26:39.367Z,35.44
2022-08-03T17:28:49.513Z,35.38
2022-08-03T17:30:40.679Z,35.31
2022-08-03T17:32:42.757Z,35.24
2022-08-03T17:34:41.080Z,35.17
2022-08-03T17:37:03.323Z,35.11
2022-08-03T17:38:41.134Z,35.04
2022-08-03T17:40:43.089Z,34.95
2022-08-03T17:42:41.407Z,34.82
2022-08-03T17:44:46.390Z,34.69
2022-08-03T17:46:41.623Z,34.59
2022-08-03T17:48:41.525Z,34.50
2022-08-03T17:50:40.799Z,34.42
2022-08-03T17:52:41.151Z,34.34
2022-08-03T17:55:50.502Z,34.26
2022-08-03T17:56:46.249Z,34.16
2022-08-03T17:58:41.620Z,34.05
2022-08-03T18:00:42.810Z,33.93
2022-08-03T18:02:47.758Z,33.78
2022-08-03T18:04:42.657Z,33.61
2022-08-03T18:06:55.586Z,33.45
2022-08-03T18:08:42.953Z,33.30
2022-08-03T18:10:49.795Z,33.18
2022-08-03T18:12:43.489Z,33.08
2022-08-03T18:14:42.329Z,32.97
2022-08-03T18:16:43.625Z,32.87
2022-08-03T18:18:43.045Z,32.77
2022-08-03T18:20:45.506Z,32.66
2022-08-03T18:22:42.861Z,32.56
2022-08-03T18:24:42.950Z,32.45
2022-08-03T18:26:43.039Z,32.35
2022-08-03T18:28:44.175Z,32.24
2022-08-03T18:30:54.712Z,32.13
2022-08-03T18:32:44.405Z,32.02
2022-08-03T18:34:53.474Z,31.89
2022-08-03T18:36:44.669Z,31.77
2022-08-03T18:38:43.819Z,31.65
2022-08-03T18:40:48.460Z,31.53
2022-08-03T18:42:51.068Z,31.42
2022-08-03T18:44:54.095Z,31.33
2022-08-03T18:46:45.366Z,31.24
2022-08-03T18:48:46.069Z,31.15
2022-08-03T18:50:49.648Z,31.06
2022-08-03T18:52:53.001Z,30.98
2022-08-03T18:55:01.182Z,30.89
2022-08-03T18:56:46.018Z,30.80
2022-08-03T18:58:45.101Z,30.72
2022-08-03T19:00:54.190Z,30.64
2022-08-03T19:02:48.954Z,30.56
2022-08-03T19:04:45.511Z,30.48
2022-08-03T19:06:45.668Z,30.41
2022-08-03T19:08:45.724Z,30.36
2022-08-03T19:10:57.539Z,30.30
2022-08-03T19:12:47.040Z,30.25
2022-08-03T19:14:46.106Z,30.20
2022-08-03T19:16:46.262Z,30.14
2022-08-03T19:18:46.383Z,30.08
2022-08-03T19:20:46.783Z,30.00
2022-08-03T19:22:46.604Z,29.92
2022-08-03T19:24:46.783Z,29.84
2022-08-03T19:26:48.645Z,29.76
2022-08-03T19:28:48.147Z,29.67
2022-08-03T19:30:53.716Z,29.58
2022-08-03T19:32:48.479Z,29.50
2022-08-03T19:34:47.451Z,29.42
2022-08-03T19:36:47.547Z,29.35
2022-08-03T19:38:47.706Z,29.29
2022-08-03T19:40:51.092Z,29.23
2022-08-03T19:42:48.189Z,29.19
2022-08-03T19:44:48.098Z,29.14
2022-08-03T19:46:48.268Z,29.10
2022-08-03T19:48:48.597Z,29.07
2022-08-03T19:50:48.551Z,29.03
2022-08-03T19:52:48.832Z,29.01
2022-08-03T19:54:53.163Z,28.99
2022-08-03T19:56:49.947Z,28.98
2022-08-03T19:58:53.273Z,28.96
2022-08-03T20:00:49.172Z,28.94
2022-08-03T20:02:50.894Z,28.93
2022-08-03T20:04:49.454Z,28.91
2022-08-03T20:06:49.766Z,28.89
2022-08-03T20:10:51.384Z,28.83
2022-08-03T20:12:49.877Z,28.80
2022-08-03T20:14:49.942Z,28.76
2022-08-03T20:16:50.060Z,28.72
2022-08-03T20:18:50.239Z,28.69
2022-08-03T20:20:50.373Z,28.66
2022-08-03T20:22:50.558Z,28.64
2022-08-03T20:24:53.189Z,28.62
2022-08-03T20:26:52.513Z,28.61
2022-08-03T20:28:51.242Z,28.60
2022-08-03T20:30:50.948Z,28.60
2022-08-03T20:32:51.082Z,28.60
2022-08-03T20:34:51.258Z,28.60
2022-08-03T20:36:51.330Z,28.60
2022-08-03T20:38:53.138Z,28.60
2022-08-03T20:40:51.548Z,28.59
2022-08-03T20:42:52.104Z,28.57
2022-08-03T20:45:05.207Z,28.54
2022-08-03T20:47:00.207Z,28.51
2022-08-03T20:48:53.112Z,28.47
2022-08-03T20:50:52.242Z,28.43
2022-08-03T20:52:54.170Z,28.39
2022-08-03T20:54:52.537Z,28.35
2022-08-03T20:56:52.918Z,28.31
2022-08-03T20:58:52.791Z,28.26
2022-08-03T21:00:52.947Z,28.22
2022-08-03T21:02:53.047Z,28.17
2022-08-03T21:04:53.270Z,28.12
2022-08-03T21:06:53.684Z,28.07
2022-08-03T21:08:53.427Z,28.02
2022-08-03T21:10:53.761Z,27.96
2022-08-03T21:12:53.694Z,27.91
2022-08-03T21:13:03.563Z,28.86
2022-08-03T21:14:53.838Z,27.85
2022-08-03T21:16:53.928Z,27.80
2022-08-03T21:18:54.015Z,27.75
2022-08-03T21:20:54.603Z,27.71
2022-08-03T21:22:54.375Z,27.66
2022-08-03T21:24:54.528Z,27.62
2022-08-03T21:26:54.820Z,27.57
2022-08-03T21:28:54.752Z,27.53
2022-08-03T21:30:54.874Z,27.48
2022-08-03T21:32:55.032Z,27.44
2022-08-03T21:34:55.134Z,27.41
2022-08-03T21:36:55.322Z,27.37
2022-08-03T21:38:56.333Z,27.34
2022-08-03T21:40:55.556Z,27.30
2022-08-03T21:42:55.668Z,27.28
2022-08-03T21:44:55.829Z,27.25
2022-08-03T21:46:55.970Z,27.22
2022-08-03T21:48:56.701Z,27.20
2022-08-03T21:50:57.251Z,27.17
2022-08-03T21:52:56.337Z,27.15
2022-08-03T21:54:56.451Z,27.12
2022-08-03T21:56:56.641Z,27.10
2022-08-03T21:58:56.739Z,27.07
2022-08-03T22:00:56.892Z,27.03
2022-08-03T22:02:57.143Z,26.99
2022-08-03T22:04:57.523Z,26.95
2022-08-03T22:06:57.302Z,26.90
2022-08-03T22:08:57.730Z,26.85
2022-08-03T22:10:57.564Z,26.80
2022-08-03T22:12:57.685Z,26.74
2022-08-03T22:15:01.346Z,26.69
2022-08-03T22:16:57.904Z,26.62
2022-08-03T22:18:58.036Z,26.56
2022-08-03T22:20:58.229Z,26.50
2022-08-03T22:22:58.314Z,26.44
2022-08-03T22:24:58.427Z,26.37
2022-08-03T22:26:58.575Z,26.31
2022-08-03T22:28:58.670Z,26.25
2022-08-03T22:30:58.766Z,26.19
2022-08-03T22:32:58.913Z,26.14
2022-08-03T22:34:59.095Z,26.09
2022-08-03T22:37:00.445Z,26.04
2022-08-03T22:38:59.387Z,25.99
2022-08-03T22:40:59.435Z,25.95
2022-08-03T22:42:59.621Z,25.91
2022-08-03T22:44:59.743Z,25.87
2022-08-03T22:47:00.175Z,25.85
2022-08-03T22:48:59.998Z,25.83
2022-08-03T22:51:00.451Z,25.81
2022-08-03T22:53:00.222Z,25.79
2022-08-03T22:55:00.379Z,25.76
2022-08-03T22:57:00.486Z,25.73
2022-08-03T22:59:00.668Z,25.69
2022-08-03T23:01:01.909Z,25.64
2022-08-03T23:03:00.944Z,25.59
2022-08-03T23:05:01.076Z,25.54
2022-08-03T23:07:01.076Z,25.48
2022-08-03T23:09:01.320Z,25.43
2022-08-03T23:11:01.414Z,25.37
2022-08-03T23:13:01.533Z,25.31
2022-08-03T23:15:01.785Z,25.25
2022-08-03T23:17:01.818Z,25.20
2022-08-03T23:19:16.347Z,25.15
2022-08-03T23:21:10.993Z,25.10
2022-08-03T23:23:03.150Z,25.06
2022-08-03T23:25:02.325Z,25.01
2022-08-03T23:27:02.884Z,24.97
2022-08-03T23:29:02.698Z,24.93
2022-08-03T23:31:02.727Z,24.88
2022-08-03T23:33:03.253Z,24.84
2022-08-03T23:35:02.940Z,24.79
2022-08-03T23:37:03.433Z,24.75
2022-08-03T23:39:03.309Z,24.70
2022-08-03T23:41:03.328Z,24.66
2022-08-03T23:43:03.875Z,24.62
2022-08-03T23:45:05.821Z,24.58
2022-08-03T23:47:03.729Z,24.54
2022-08-03T23:49:04.199Z,24.50
2022-08-03T23:51:04.078Z,24.47
2022-08-03T23:53:04.192Z,24.43
2022-08-03T23:55:04.266Z,24.40
2022-08-03T23:57:04.758Z,24.37
2022-08-03T23:59:04.583Z,24.34
